createdAt,value
2023-11-23T00:00:43.418Z,99863.00
2023-11-23T00:03:15.949Z,99853.00
2023-11-23T00:05:47.529Z,99868.00
2023-11-23T00:08:18.828Z,99880.00
2023-11-23T00:10:50.765Z,99909.00
2023-11-23T00:13:21.656Z,99897.00
2023-11-23T00:15:52.599Z,99888.00
2023-11-23T00:18:23.583Z,99884.00
2023-11-23T00:20:56.462Z,99864.00
2023-11-23T00:23:27.467Z,99873.00
2023-11-23T00:25:58.512Z,99861.00
2023-11-23T00:28:29.436Z,99851.00
2023-11-23T00:31:00.416Z,99849.00
2023-11-23T00:33:31.537Z,99864.00
2023-11-23T00:36:04.120Z,99870.00
2023-11-23T00:38:35.401Z,99871.00
2023-11-23T00:41:06.801Z,99865.00
2023-11-23T00:43:37.816Z,99865.00
2023-11-23T00:46:08.789Z,99858.00
2023-11-23T00:48:39.766Z,99860.00
2023-11-23T00:51:10.786Z,99852.00
2023-11-23T00:53:41.820Z,99855.00
2023-11-23T00:56:12.874Z,99847.00
2023-11-23T00:58:43.824Z,99851.00
2023-11-23T01:01:16.645Z,99857.00
2023-11-23T01:03:47.841Z,99863.00
2023-11-23T01:06:18.927Z,99861.00
2023-11-23T01:08:49.926Z,99855.00
2023-11-23T01:11:20.886Z,99854.00
2023-11-23T01:13:52.009Z,99852.00
2023-11-23T01:16:23.021Z,99859.00
2023-11-23T01:18:53.998Z,99871.00
2023-11-23T01:21:24.920Z,99866.00
2023-11-23T01:23:56.059Z,99864.00
2023-11-23T01:26:27.058Z,99867.00
2023-11-23T01:28:58.073Z,99873.00
2023-11-23T01:31:30.407Z,99859.00
2023-11-23T01:34:01.545Z,99867.00
2023-11-23T01:36:32.586Z,99868.00
2023-11-23T01:39:03.922Z,99856.00
2023-11-23T01:41:34.898Z,99844.00
2023-11-23T01:44:06.144Z,99845.00
2023-11-23T01:46:37.327Z,99842.00
2023-11-23T01:49:09.068Z,99839.00
2023-11-23T01:51:40.068Z,99844.00
2023-11-23T01:54:11.142Z,99832.00
2023-11-23T01:56:43.554Z,99828.00
2023-11-23T01:59:16.383Z,99822.00
2023-11-23T02:01:47.477Z,99813.00
2023-11-23T02:04:18.534Z,99812.00
2023-11-23T02:06:49.698Z,99791.00
2023-11-23T02:09:20.800Z,99798.00
2023-11-23T02:11:52.372Z,99797.00
2023-11-23T02:14:23.513Z,99794.00
2023-11-23T02:16:54.835Z,99788.00
2023-11-23T02:19:25.844Z,99784.00
2023-11-23T02:21:56.776Z,99785.00
2023-11-23T02:24:27.718Z,99790.00
2023-11-23T02:26:58.752Z,99790.00
2023-11-23T02:29:29.828Z,99793.00
2023-11-23T02:32:28.505Z,99787.00
2023-11-23T02:34:59.468Z,99783.00
2023-11-23T02:37:30.680Z,99781.00
2023-11-23T02:40:01.675Z,99783.00
2023-11-23T02:42:32.616Z,99785.00
2023-11-23T02:45:04.094Z,99779.00
2023-11-23T02:47:35.994Z,99784.00
2023-11-23T02:50:08.728Z,99790.00
2023-11-23T02:52:39.958Z,99786.00
2023-11-23T02:55:12.591Z,99780.00
2023-11-23T02:57:43.649Z,99784.00
2023-11-23T03:00:14.927Z,99774.00
2023-11-23T03:02:46.110Z,99782.00
2023-11-23T03:05:17.832Z,99788.00
2023-11-23T03:07:48.797Z,99800.00
2023-11-23T03:10:19.784Z,99801.00
2023-11-23T03:12:50.704Z,99798.00
2023-11-23T03:15:21.675Z,99799.00
2023-11-23T03:17:52.653Z,99795.00
2023-11-23T03:20:23.680Z,99799.00
2023-11-23T03:22:54.588Z,99793.00
2023-11-23T03:25:26.188Z,99797.00
2023-11-23T03:27:57.100Z,99788.00
2023-11-23T03:30:28.047Z,99795.00
2023-11-23T03:32:59.069Z,99786.00
2023-11-23T03:35:30.088Z,99790.00
2023-11-23T03:38:01.018Z,99788.00
2023-11-23T03:40:32.067Z,99796.00
2023-11-23T03:43:02.988Z,99798.00
2023-11-23T03:45:33.927Z,99801.00
2023-11-23T03:48:05.348Z,99806.00
2023-11-23T03:50:36.526Z,99801.00
2023-11-23T03:53:07.895Z,99795.00
2023-11-23T03:55:38.830Z,99792.00
2023-11-23T03:58:09.793Z,99788.00
2023-11-23T04:00:41.445Z,99786.00
2023-11-23T04:03:12.421Z,99779.00
2023-11-23T04:05:43.424Z,99777.00
2023-11-23T04:08:14.554Z,99773.00
2023-11-23T04:10:45.522Z,99769.00
2023-11-23T04:13:16.515Z,99768.00
2023-11-23T04:15:47.422Z,99761.00
2023-11-23T04:18:18.424Z,99755.00
2023-11-23T04:20:49.398Z,99759.00
2023-11-23T04:23:20.440Z,99764.00
2023-11-23T04:25:51.696Z,99775.00
2023-11-23T04:28:22.669Z,99767.00
2023-11-23T04:30:54.758Z,99772.00
2023-11-23T04:33:25.864Z,99769.00
2023-11-23T04:35:57.283Z,99774.00
2023-11-23T04:38:28.674Z,99782.00
2023-11-23T04:40:59.571Z,99770.00
2023-11-23T04:43:30.599Z,99775.00
2023-11-23T04:46:02.262Z,99770.00
2023-11-23T04:48:33.619Z,99776.00
2023-11-23T04:51:05.739Z,99772.00
2023-11-23T04:53:36.663Z,99767.00
2023-11-23T04:56:07.928Z,99765.00
2023-11-23T04:58:38.882Z,99762.00
2023-11-23T05:01:09.860Z,99747.00
2023-11-23T05:03:41.047Z,99749.00
2023-11-23T05:06:13.331Z,99746.00
2023-11-23T05:08:44.310Z,99751.00
2023-11-23T05:11:15.305Z,99756.00
2023-11-23T05:13:46.246Z,99747.00
2023-11-23T05:16:17.194Z,99738.00
2023-11-23T05:18:48.201Z,99738.00
2023-11-23T05:21:19.171Z,99748.00
2023-11-23T05:23:50.193Z,99738.00
2023-11-23T05:26:21.222Z,99745.00
2023-11-23T05:28:52.219Z,99742.00
2023-11-23T05:31:23.183Z,99741.00
2023-11-23T05:33:54.273Z,99739.00
2023-11-23T05:36:25.312Z,99742.00
2023-11-23T05:38:56.320Z,99754.00
2023-11-23T05:41:27.317Z,99754.00
2023-11-23T05:44:00.005Z,99758.00
2023-11-23T05:46:31.802Z,99772.00
2023-11-23T05:49:03.232Z,99790.00
2023-11-23T05:51:34.209Z,99781.00
2023-11-23T05:54:05.751Z,99776.00
2023-11-23T05:56:37.010Z,99783.00
2023-11-23T05:59:08.433Z,99788.00
2023-11-23T06:01:39.405Z,99784.00
2023-11-23T06:04:10.530Z,99771.00
2023-11-23T06:06:41.646Z,99775.00
2023-11-23T06:09:12.689Z,99774.00
2023-11-23T06:11:44.716Z,99774.00
2023-11-23T06:14:15.708Z,99781.00
2023-11-23T06:16:46.611Z,99783.00
2023-11-23T06:19:17.720Z,99781.00
2023-11-23T06:21:48.800Z,99784.00
2023-11-23T06:24:19.837Z,99778.00
2023-11-23T06:26:51.095Z,99773.00
2023-11-23T06:29:22.044Z,99777.00
2023-11-23T06:31:53.628Z,99786.00
2023-11-23T06:34:26.158Z,99790.00
2023-11-23T06:36:57.143Z,99788.00
2023-11-23T06:39:28.297Z,99788.00
2023-11-23T06:42:02.466Z,99782.00
2023-11-23T06:44:33.494Z,99779.00
2023-11-23T06:47:05.696Z,99782.00
2023-11-23T06:49:36.736Z,99782.00
2023-11-23T06:52:08.509Z,99769.00
2023-11-23T06:54:39.704Z,99770.00
2023-11-23T06:57:10.720Z,99772.00
2023-11-23T06:59:42.483Z,99776.00
2023-11-23T07:02:13.587Z,99776.00
2023-11-23T07:04:44.595Z,99766.00
2023-11-23T07:07:15.505Z,99769.00
2023-11-23T07:09:46.476Z,99762.00
2023-11-23T07:12:17.652Z,99759.00
2023-11-23T07:14:48.644Z,99760.00
2023-11-23T07:17:20.457Z,99759.00
2023-11-23T07:19:51.458Z,99757.00
2023-11-23T07:22:22.484Z,99748.00
2023-11-23T07:24:53.560Z,99753.00
2023-11-23T07:27:24.679Z,99750.00
2023-11-23T07:29:56.583Z,99751.00
2023-11-23T07:32:27.702Z,99758.00
2023-11-23T07:34:58.888Z,99773.00
2023-11-23T07:37:38.561Z,99765.00
2023-11-23T07:40:16.460Z,99766.00
2023-11-23T07:42:47.449Z,99774.00
2023-11-23T07:45:18.532Z,99771.00
2023-11-23T07:47:50.509Z,99773.00
2023-11-23T07:50:21.541Z,99756.00
2023-11-23T07:52:52.600Z,99760.00
2023-11-23T07:55:23.524Z,99752.00
2023-11-23T07:57:54.471Z,99756.00
2023-11-23T08:00:26.874Z,99744.00
2023-11-23T08:02:57.941Z,99743.00
2023-11-23T08:05:28.907Z,99734.00
2023-11-23T08:07:59.820Z,99754.00
2023-11-23T08:10:30.779Z,99743.00
2023-11-23T08:13:02.654Z,99751.00
2023-11-23T08:15:35.438Z,99747.00
2023-11-23T08:18:08.473Z,99753.00
2023-11-23T08:20:39.853Z,99747.00
2023-11-23T08:23:13.784Z,99749.00
2023-11-23T08:25:45.517Z,99753.00
2023-11-23T08:28:17.701Z,99748.00
2023-11-23T08:30:48.740Z,99740.00
2023-11-23T08:33:20.564Z,99742.00
2023-11-23T08:35:55.326Z,99742.00
2023-11-23T08:38:28.513Z,99733.00
2023-11-23T08:41:01.376Z,99759.00
2023-11-23T08:43:32.467Z,99748.00
2023-11-23T08:46:04.058Z,99745.00
2023-11-23T08:48:35.073Z,99734.00
2023-11-23T08:51:06.714Z,99737.00
2023-11-23T08:53:37.670Z,99726.00
2023-11-23T08:56:08.866Z,99719.00
2023-11-23T08:58:40.984Z,99716.00
2023-11-23T09:01:12.131Z,99709.00
2023-11-23T09:03:43.320Z,99711.00
2023-11-23T09:06:15.031Z,99721.00
2023-11-23T09:08:46.089Z,99711.00
2023-11-23T09:11:17.685Z,99703.00
2023-11-23T09:13:48.671Z,99702.00
2023-11-23T09:16:20.011Z,99696.00
2023-11-23T09:18:51.950Z,99695.00
2023-11-23T09:21:23.499Z,99698.00
2023-11-23T09:23:55.085Z,99691.00
2023-11-23T09:26:26.170Z,99685.00
2023-11-23T09:28:57.056Z,99701.00
2023-11-23T09:31:32.387Z,99692.00
2023-11-23T09:34:03.532Z,99679.00
2023-11-23T09:36:34.577Z,99683.00
2023-11-23T09:39:05.795Z,99677.00
2023-11-23T09:41:40.725Z,99661.00
2023-11-23T09:44:12.172Z,99652.00
2023-11-23T09:46:45.864Z,99649.00
2023-11-23T09:49:19.831Z,99650.00
2023-11-23T09:51:52.512Z,99649.00
2023-11-23T09:54:27.970Z,99651.00
2023-11-23T09:57:02.023Z,99647.00
2023-11-23T09:59:33.536Z,99642.00
2023-11-23T10:02:10.894Z,99635.00
2023-11-23T10:04:41.917Z,99629.00
2023-11-23T10:07:16.582Z,99619.00
2023-11-23T10:09:50.210Z,99613.00
2023-11-23T10:12:23.171Z,99611.00
2023-11-23T10:14:54.603Z,99610.00
2023-11-23T10:17:26.577Z,99602.00
2023-11-23T10:20:17.417Z,99609.00
2023-11-23T10:22:50.602Z,99596.00
2023-11-23T10:25:38.290Z,99598.00
2023-11-23T10:28:09.685Z,99594.00
2023-11-23T10:30:40.966Z,99592.00
2023-11-23T10:33:14.146Z,99575.00
2023-11-23T10:35:51.707Z,99577.00
2023-11-23T10:38:35.445Z,99576.00
2023-11-23T10:41:15.938Z,99575.00
2023-11-23T10:43:48.476Z,99583.00
2023-11-23T10:46:20.027Z,99577.00
2023-11-23T10:48:52.310Z,99572.00
2023-11-23T10:51:26.851Z,99568.00
2023-11-23T10:53:57.946Z,99562.00
2023-11-23T10:56:31.911Z,99569.00
2023-11-23T10:59:12.142Z,99557.00
2023-11-23T11:01:43.384Z,99555.00
2023-11-23T11:04:14.714Z,99548.00
2023-11-23T11:06:49.868Z,99545.00
2023-11-23T11:09:29.791Z,99555.00
2023-11-23T11:12:05.191Z,99532.00
2023-11-23T11:14:37.757Z,99531.00
2023-11-23T11:17:08.899Z,99530.00
2023-11-23T11:19:54.043Z,99526.00
2023-11-23T11:22:25.052Z,99523.00
2023-11-23T11:24:59.530Z,99517.00
2023-11-23T11:27:31.643Z,99519.00
2023-11-23T11:30:03.636Z,99527.00
2023-11-23T11:32:34.888Z,99523.00
2023-11-23T11:35:09.444Z,99524.00
2023-11-23T11:37:43.494Z,99522.00
2023-11-23T11:40:17.000Z,99518.00
2023-11-23T11:42:47.994Z,99513.00
2023-11-23T11:45:20.862Z,99518.00
2023-11-23T11:47:58.475Z,99508.00
2023-11-23T11:50:29.444Z,99509.00
2023-11-23T11:53:01.186Z,99502.00
2023-11-23T11:55:33.097Z,99489.00
2023-11-23T11:58:06.438Z,99499.00
2023-11-23T12:00:39.056Z,99492.00
2023-11-23T12:03:11.027Z,99488.00
2023-11-23T12:05:43.534Z,99480.00
2023-11-23T12:08:16.001Z,99479.00
2023-11-23T12:10:46.952Z,99475.00
2023-11-23T12:13:24.837Z,99467.00
2023-11-23T12:15:56.138Z,99451.00
2023-11-23T12:18:36.506Z,99443.00
2023-11-23T12:21:14.628Z,99438.00
2023-11-23T12:23:46.355Z,99432.00
2023-11-23T12:26:17.346Z,99436.00
2023-11-23T12:28:49.126Z,99435.00
2023-11-23T12:31:22.798Z,99429.00
2023-11-23T12:33:53.916Z,99418.00
2023-11-23T12:36:25.525Z,99421.00
2023-11-23T12:38:58.194Z,99414.00
2023-11-23T12:41:36.713Z,99395.00
2023-11-23T12:44:14.070Z,99389.00
2023-11-23T12:46:45.157Z,99395.00
2023-11-23T12:49:16.383Z,99390.00
2023-11-23T12:51:47.892Z,99394.00
2023-11-23T12:54:19.007Z,99389.00
2023-11-23T12:56:52.764Z,99391.00
2023-11-23T12:59:23.770Z,99385.00
2023-11-23T13:01:56.971Z,99379.00
2023-11-23T13:04:30.951Z,99377.00
2023-11-23T13:07:03.766Z,99370.00
2023-11-23T13:09:35.360Z,99369.00
2023-11-23T13:12:06.589Z,99367.00
2023-11-23T13:14:37.589Z,99359.00
2023-11-23T13:17:09.565Z,99363.00
2023-11-23T13:19:44.075Z,99360.00
2023-11-23T13:22:17.069Z,99354.00
2023-11-23T13:24:48.564Z,99359.00
2023-11-23T13:27:19.896Z,99353.00
2023-11-23T13:29:51.035Z,99352.00
2023-11-23T13:32:21.957Z,99363.00
2023-11-23T13:34:53.464Z,99371.00
2023-11-23T13:37:25.060Z,99367.00
2023-11-23T13:39:55.967Z,99374.00
2023-11-23T13:42:27.076Z,99364.00
2023-11-23T13:44:58.150Z,99369.00
2023-11-23T13:47:29.811Z,99394.00
2023-11-23T13:50:01.037Z,99352.00
2023-11-23T13:52:33.310Z,99341.00
2023-11-23T13:55:10.123Z,99332.00
2023-11-23T13:57:41.248Z,99333.00
2023-11-23T14:00:13.575Z,99333.00
2023-11-23T14:02:44.809Z,99352.00
2023-11-23T14:05:16.006Z,99332.00
2023-11-23T14:07:49.530Z,99310.00
2023-11-23T14:10:21.283Z,99309.00
2023-11-23T14:12:52.322Z,99309.00
2023-11-23T14:15:23.837Z,99307.00
2023-11-23T14:17:54.916Z,99316.00
2023-11-23T14:20:26.749Z,99326.00
2023-11-23T14:22:57.669Z,99318.00
2023-11-23T14:25:28.643Z,99316.00
2023-11-23T14:28:07.546Z,99317.00
2023-11-23T14:30:38.887Z,99294.00
2023-11-23T14:33:14.685Z,99309.00
2023-11-23T14:35:52.263Z,99308.00
2023-11-23T14:38:24.623Z,99300.00
2023-11-23T14:40:58.924Z,99286.00
2023-11-23T14:43:29.948Z,99288.00
2023-11-23T14:46:01.107Z,99285.00
2023-11-23T14:48:32.140Z,99292.00
2023-11-23T14:51:03.493Z,99271.00
2023-11-23T14:53:34.571Z,99279.00
2023-11-23T14:56:05.929Z,99279.00
2023-11-23T14:58:36.880Z,99281.00
2023-11-23T15:01:07.869Z,99283.00
2023-11-23T15:03:39.013Z,99276.00
2023-11-23T15:06:10.182Z,99283.00
2023-11-23T15:08:41.086Z,99276.00
2023-11-23T15:11:13.765Z,99275.00
2023-11-23T15:13:45.289Z,99278.00
2023-11-23T15:16:17.085Z,99285.00
2023-11-23T15:18:48.834Z,99289.00
2023-11-23T15:21:19.904Z,99284.00
2023-11-23T15:23:51.525Z,99293.00
2023-11-23T15:26:22.441Z,99281.00
2023-11-23T15:28:53.583Z,99281.00
2023-11-23T15:31:25.121Z,99276.00
2023-11-23T15:33:56.085Z,99273.00
2023-11-23T15:36:27.938Z,99272.00
2023-11-23T15:38:58.939Z,99282.00
2023-11-23T15:41:30.276Z,99270.00
2023-11-23T15:44:01.467Z,99270.00
2023-11-23T15:46:33.123Z,99268.00
2023-11-23T15:49:05.771Z,99266.00
2023-11-23T15:51:36.769Z,99259.00
2023-11-23T15:54:08.561Z,99242.00
2023-11-23T15:56:39.672Z,99245.00
2023-11-23T15:59:10.622Z,99235.00
2023-11-23T16:01:41.731Z,99233.00
2023-11-23T16:04:12.856Z,99226.00
2023-11-23T16:06:44.043Z,99217.00
2023-11-23T16:09:16.865Z,99210.00
2023-11-23T16:11:47.859Z,99193.00
2023-11-23T16:14:18.795Z,99195.00
2023-11-23T16:16:49.770Z,99196.00
2023-11-23T16:19:21.279Z,99201.00
2023-11-23T16:21:53.176Z,99182.00
2023-11-23T16:24:24.187Z,99176.00
2023-11-23T16:26:55.739Z,99194.00
2023-11-23T16:29:27.828Z,99199.00
2023-11-23T16:32:01.592Z,99182.00
2023-11-23T16:34:33.872Z,99182.00
2023-11-23T16:37:05.154Z,99191.00
2023-11-23T16:39:36.171Z,99181.00
2023-11-23T16:42:07.835Z,99185.00
2023-11-23T16:44:38.984Z,99182.00
2023-11-23T16:47:09.903Z,99177.00
2023-11-23T16:49:42.083Z,99170.00
2023-11-23T16:52:13.019Z,99173.00
2023-11-23T16:54:44.021Z,99163.00
2023-11-23T16:57:14.957Z,99162.00
2023-11-23T16:59:48.976Z,99166.00
2023-11-23T17:02:20.314Z,99158.00
2023-11-23T17:04:54.563Z,99157.00
2023-11-23T17:07:26.544Z,99156.00
2023-11-23T17:09:59.403Z,99159.00
2023-11-23T17:12:31.215Z,99142.00
2023-11-23T17:15:02.270Z,99139.00
2023-11-23T17:17:33.525Z,99129.00
2023-11-23T17:20:05.801Z,99141.00
2023-11-23T17:22:38.306Z,99147.00
2023-11-23T17:25:13.992Z,99139.00
2023-11-23T17:27:48.446Z,99133.00
2023-11-23T17:30:22.325Z,99142.00
2023-11-23T17:32:53.395Z,99137.00
2023-11-23T17:35:26.115Z,99133.00
2023-11-23T17:37:57.443Z,99121.00
2023-11-23T17:40:28.536Z,99132.00
2023-11-23T17:42:59.452Z,99133.00
2023-11-23T17:45:30.617Z,99134.00
2023-11-23T17:48:02.356Z,99134.00
2023-11-23T17:50:33.851Z,99131.00
2023-11-23T17:53:05.737Z,99128.00
2023-11-23T17:55:36.800Z,99120.00
2023-11-23T17:58:09.972Z,99115.00
2023-11-23T18:00:41.033Z,99118.00
2023-11-23T18:03:12.492Z,99104.00
2023-11-23T18:05:43.937Z,99094.00
2023-11-23T18:08:15.860Z,99090.00
2023-11-23T18:10:51.124Z,99073.00
2023-11-23T18:13:22.497Z,99084.00
2023-11-23T18:15:53.911Z,99090.00
2023-11-23T18:18:25.123Z,99086.00
2023-11-23T18:20:58.005Z,99070.00
2023-11-23T18:23:29.838Z,99070.00
2023-11-23T18:26:00.809Z,99072.00
2023-11-23T18:28:31.963Z,99096.00
2023-11-23T18:31:02.968Z,99074.00
2023-11-23T18:33:36.917Z,99078.00
2023-11-23T18:36:11.009Z,99060.00
2023-11-23T18:38:43.978Z,99054.00
2023-11-23T18:41:14.942Z,99058.00
2023-11-23T18:43:46.771Z,99076.00
2023-11-23T18:46:19.877Z,99063.00
2023-11-23T18:48:51.073Z,99044.00
2023-11-23T18:51:22.197Z,99063.00
2023-11-23T18:53:53.708Z,99060.00
2023-11-23T18:56:24.679Z,99057.00
2023-11-23T18:58:56.202Z,99058.00
2023-11-23T19:01:27.398Z,99057.00
2023-11-23T19:04:00.022Z,99056.00
2023-11-23T19:06:31.472Z,99064.00
2023-11-23T19:09:02.702Z,99050.00
2023-11-23T19:11:33.773Z,99056.00
2023-11-23T19:14:05.028Z,99048.00
2023-11-23T19:16:36.272Z,99042.00
2023-11-23T19:19:08.728Z,99030.00
2023-11-23T19:21:40.537Z,99023.00
2023-11-23T19:24:13.389Z,99010.00
2023-11-23T19:26:45.539Z,98996.00
2023-11-23T19:29:19.060Z,98989.00
2023-11-23T19:31:51.833Z,99001.00
2023-11-23T19:34:23.627Z,99000.00
2023-11-23T19:36:55.642Z,98989.00
2023-11-23T19:39:29.005Z,98982.00
2023-11-23T19:42:01.357Z,98978.00
2023-11-23T19:44:32.759Z,98998.00
2023-11-23T19:47:04.140Z,98983.00
2023-11-23T19:49:35.555Z,98969.00
2023-11-23T19:52:17.743Z,98964.00
2023-11-23T19:54:49.456Z,98950.00
2023-11-23T19:57:20.930Z,98954.00
2023-11-23T19:59:53.187Z,98947.00
2023-11-23T20:02:24.209Z,98955.00
2023-11-23T20:04:55.233Z,98958.00
2023-11-23T20:07:29.243Z,98952.00
2023-11-23T20:10:00.248Z,98951.00
2023-11-23T20:12:34.423Z,98957.00
2023-11-23T20:17:38.945Z,98958.00
2023-11-23T20:20:11.393Z,98966.00
2023-11-23T20:22:42.512Z,98958.00
2023-11-23T20:25:17.287Z,98961.00
2023-11-23T20:27:48.940Z,98956.00
2023-11-23T20:30:20.069Z,98954.00
2023-11-23T20:32:51.366Z,98946.00
2023-11-23T20:35:23.826Z,98948.00
2023-11-23T20:37:56.630Z,98936.00
2023-11-23T20:40:28.244Z,98927.00
2023-11-23T20:42:59.764Z,98926.00
2023-11-23T20:45:30.748Z,98917.00
2023-11-23T20:48:01.813Z,98932.00
2023-11-23T20:50:32.766Z,98892.00
2023-11-23T20:53:05.490Z,98879.00
2023-11-23T20:55:37.169Z,98866.00
2023-11-23T20:58:08.549Z,98877.00
2023-11-23T21:00:39.946Z,98848.00
2023-11-23T21:03:11.482Z,98837.00
2023-11-23T21:05:42.821Z,98841.00
2023-11-23T21:08:14.309Z,98848.00
2023-11-23T21:10:47.571Z,98839.00
2023-11-23T21:13:20.085Z,98837.00
2023-11-23T21:15:51.086Z,98826.00
2023-11-23T21:18:22.219Z,98824.00
2023-11-23T21:20:53.398Z,98826.00
2023-11-23T21:23:24.352Z,98822.00
2023-11-23T21:25:55.281Z,98820.00
2023-11-23T21:28:26.941Z,98820.00
2023-11-23T21:30:57.942Z,98810.00
2023-11-23T21:33:29.028Z,98808.00
2023-11-23T21:35:59.988Z,98802.00
2023-11-23T21:38:31.996Z,98798.00
2023-11-23T21:41:04.167Z,98805.00
2023-11-23T21:43:35.270Z,98787.00
2023-11-23T21:46:06.308Z,98796.00
2023-11-23T21:48:38.010Z,98781.00
2023-11-23T21:51:08.966Z,98779.00
2023-11-23T21:53:42.257Z,98783.00
2023-11-23T21:56:13.515Z,98767.00
2023-11-23T21:58:44.542Z,98755.00
2023-11-23T22:01:15.689Z,98743.00
2023-11-23T22:03:50.772Z,98725.00
2023-11-23T22:06:22.773Z,98721.00
2023-11-23T22:08:53.857Z,98729.00
2023-11-23T22:11:24.871Z,98714.00
2023-11-23T22:13:55.819Z,98704.00
2023-11-23T22:16:26.850Z,98731.00
2023-11-23T22:18:58.224Z,98703.00
2023-11-23T22:21:29.806Z,98699.00
2023-11-23T22:24:01.668Z,98700.00
2023-11-23T22:26:33.340Z,98681.00
2023-11-23T22:29:04.336Z,98684.00
2023-11-23T22:31:37.527Z,98681.00
2023-11-23T22:34:09.152Z,98674.00
2023-11-23T22:36:40.605Z,98672.00
2023-11-23T22:39:12.027Z,98674.00
2023-11-23T22:41:44.514Z,98671.00
2023-11-23T22:44:16.055Z,98682.00
2023-11-23T22:46:48.035Z,98670.00
2023-11-23T22:49:18.956Z,98670.00
2023-11-23T22:51:49.909Z,98678.00
2023-11-23T22:54:21.001Z,98664.00
2023-11-23T22:56:51.967Z,98670.00
2023-11-23T22:59:22.871Z,98676.00
2023-11-23T23:01:53.970Z,98672.00
2023-11-23T23:04:25.761Z,98681.00
2023-11-23T23:06:57.155Z,98684.00
2023-11-23T23:09:28.704Z,98687.00
2023-11-23T23:11:59.764Z,98685.00
2023-11-23T23:14:30.842Z,98669.00
2023-11-23T23:17:02.053Z,98676.00
2023-11-23T23:19:33.121Z,98670.00
2023-11-23T23:22:09.267Z,98657.00
2023-11-23T23:24:44.842Z,98663.00
2023-11-23T23:27:16.234Z,98656.00
2023-11-23T23:29:47.216Z,98653.00
2023-11-23T23:32:18.141Z,98674.00
2023-11-23T23:34:49.070Z,98639.00
2023-11-23T23:37:20.137Z,98641.00
2023-11-23T23:39:51.109Z,98644.00
2023-11-23T23:42:22.439Z,98630.00
2023-11-23T23:44:57.347Z,98626.00
2023-11-23T23:47:28.567Z,98613.00
2023-11-23T23:49:59.814Z,98617.00
2023-11-23T23:52:30.724Z,98613.00
2023-11-23T23:55:02.955Z,98606.00
2023-11-23T23:57:35.373Z,98595.00
